sensor_id;sensor_type;location;lat;lon;timestamp;temperature;humidity
9049;DHT22;4559;47.252;9.592;2022-09-24T00:01:29;14.40;97.40
9049;DHT22;4559;47.252;9.592;2022-09-24T00:04:00;14.40;97.50
9049;DHT22;4559;47.252;9.592;2022-09-24T00:06:28;14.40;97.70
9049;DHT22;4559;47.252;9.592;2022-09-24T00:08:55;14.40;97.70
9049;DHT22;4559;47.252;9.592;2022-09-24T00:11:23;14.40;97.80
9049;DHT22;4559;47.252;9.592;2022-09-24T00:13:50;14.40;97.70
9049;DHT22;4559;47.252;9.592;2022-09-24T00:16:19;14.40;97.70
9049;DHT22;4559;47.252;9.592;2022-09-24T00:18:44;14.40;97.80
9049;DHT22;4559;47.252;9.592;2022-09-24T00:21:19;14.40;97.90
9049;DHT22;4559;47.252;9.592;2022-09-24T00:23:49;14.40;97.90
9049;DHT22;4559;47.252;9.592;2022-09-24T00:26:15;14.40;98.00
9049;DHT22;4559;47.252;9.592;2022-09-24T00:28:59;14.40;98.10
9049;DHT22;4559;47.252;9.592;2022-09-24T00:31:25;14.30;98.00
9049;DHT22;4559;47.252;9.592;2022-09-24T00:33:51;14.30;97.90
9049;DHT22;4559;47.252;9.592;2022-09-24T00:36:19;14.30;97.70
9049;DHT22;4559;47.252;9.592;2022-09-24T00:38:48;14.30;97.70
9049;DHT22;4559;47.252;9.592;2022-09-24T00:41:14;14.30;97.80
9049;DHT22;4559;47.252;9.592;2022-09-24T00:43:40;14.30;98.00
9049;DHT22;4559;47.252;9.592;2022-09-24T00:48:42;14.30;98.20
9049;DHT22;4559;47.252;9.592;2022-09-24T00:51:10;14.30;98.50
9049;DHT22;4559;47.252;9.592;2022-09-24T00:53:39;14.20;98.70
9049;DHT22;4559;47.252;9.592;2022-09-24T00:56:06;14.30;98.90
9049;DHT22;4559;47.252;9.592;2022-09-24T00:58:33;14.30;99.00
9049;DHT22;4559;47.252;9.592;2022-09-24T01:01:06;14.30;98.90
9049;DHT22;4559;47.252;9.592;2022-09-24T01:03:35;14.40;98.80
9049;DHT22;4559;47.252;9.592;2022-09-24T01:06:04;14.30;99.00
9049;DHT22;4559;47.252;9.592;2022-09-24T01:08:30;14.30;99.10
9049;DHT22;4559;47.252;9.592;2022-09-24T01:11:37;14.30;99.10
9049;DHT22;4559;47.252;9.592;2022-09-24T01:22:57;14.30;99.30
9049;DHT22;4559;47.252;9.592;2022-09-24T01:31:30;14.30;98.70
9049;DHT22;4559;47.252;9.592;2022-09-24T01:34:00;14.20;98.60
9049;DHT22;4559;47.252;9.592;2022-09-24T01:36:29;14.20;98.90
9049;DHT22;4559;47.252;9.592;2022-09-24T01:38:58;14.10;98.90
9049;DHT22;4559;47.252;9.592;2022-09-24T01:41:25;14.10;98.80
9049;DHT22;4559;47.252;9.592;2022-09-24T01:43:51;14.10;98.60
9049;DHT22;4559;47.252;9.592;2022-09-24T01:46:17;14.10;98.70
9049;DHT22;4559;47.252;9.592;2022-09-24T01:48:44;14.00;99.10
9049;DHT22;4559;47.252;9.592;2022-09-24T01:51:27;13.90;99.30
9049;DHT22;4559;47.252;9.592;2022-09-24T01:54:02;13.90;99.30
9049;DHT22;4559;47.252;9.592;2022-09-24T01:56:37;13.90;99.50
9049;DHT22;4559;47.252;9.592;2022-09-24T01:59:33;13.90;99.50
9049;DHT22;4559;47.252;9.592;2022-09-24T02:02:15;13.90;99.20
9049;DHT22;4559;47.252;9.592;2022-09-24T02:04:46;13.90;99.20
9049;DHT22;4559;47.252;9.592;2022-09-24T02:07:34;13.90;99.20
9049;DHT22;4559;47.252;9.592;2022-09-24T02:10:00;13.90;99.30
9049;DHT22;4559;47.252;9.592;2022-09-24T02:12:32;13.90;99.50
9049;DHT22;4559;47.252;9.592;2022-09-24T02:17:31;13.90;99.90
9049;DHT22;4559;47.252;9.592;2022-09-24T02:20:01;13.90;99.70
9049;DHT22;4559;47.252;9.592;2022-09-24T02:22:29;13.90;99.80
9049;DHT22;4559;47.252;9.592;2022-09-24T02:24:57;13.80;99.80
9049;DHT22;4559;47.252;9.592;2022-09-24T02:27:25;13.80;99.90
9049;DHT22;4559;47.252;9.592;2022-09-24T02:29:56;13.80;99.90
9049;DHT22;4559;47.252;9.592;2022-09-24T02:32:25;13.80;99.90
9049;DHT22;4559;47.252;9.592;2022-09-24T02:34:57;13.80;99.90
9049;DHT22;4559;47.252;9.592;2022-09-24T02:37:27;13.80;99.90
9049;DHT22;4559;47.252;9.592;2022-09-24T02:39:53;13.80;99.90
9049;DHT22;4559;47.252;9.592;2022-09-24T02:42:19;13.70;99.90
9049;DHT22;4559;47.252;9.592;2022-09-24T02:44:46;13.70;99.90
9049;DHT22;4559;47.252;9.592;2022-09-24T02:47:12;13.70;99.90
9049;DHT22;4559;47.252;9.592;2022-09-24T02:49:38;13.60;99.90
9049;DHT22;4559;47.252;9.592;2022-09-24T02:52:03;13.50;99.90
9049;DHT22;4559;47.252;9.592;2022-09-24T02:54:29;13.50;99.90
9049;DHT22;4559;47.252;9.592;2022-09-24T02:56:55;13.50;99.90
9049;DHT22;4559;47.252;9.592;2022-09-24T02:59:21;13.60;99.90
9049;DHT22;4559;47.252;9.592;2022-09-24T03:01:47;13.60;99.90
9049;DHT22;4559;47.252;9.592;2022-09-24T03:04:14;13.60;99.90
9049;DHT22;4559;47.252;9.592;2022-09-24T03:06:39;13.50;99.90
9049;DHT22;4559;47.252;9.592;2022-09-24T03:09:05;13.40;99.90
9049;DHT22;4559;47.252;9.592;2022-09-24T03:11:31;13.30;99.90
9049;DHT22;4559;47.252;9.592;2022-09-24T03:13:58;13.40;99.90
9049;DHT22;4559;47.252;9.592;2022-09-24T03:16:24;13.40;99.90
9049;DHT22;4559;47.252;9.592;2022-09-24T03:18:49;13.40;99.90
9049;DHT22;4559;47.252;9.592;2022-09-24T03:21:18;13.30;99.90
9049;DHT22;4559;47.252;9.592;2022-09-24T03:23:44;13.30;99.90
9049;DHT22;4559;47.252;9.592;2022-09-24T03:26:10;13.30;99.90
9049;DHT22;4559;47.252;9.592;2022-09-24T03:28:35;13.30;99.90
9049;DHT22;4559;47.252;9.592;2022-09-24T03:31:01;13.30;99.90
9049;DHT22;4559;47.252;9.592;2022-09-24T03:33:41;13.30;99.90
9049;DHT22;4559;47.252;9.592;2022-09-24T03:36:10;13.30;99.90
9049;DHT22;4559;47.252;9.592;2022-09-24T03:38:37;13.30;99.90
9049;DHT22;4559;47.252;9.592;2022-09-24T03:41:04;13.20;99.90
9049;DHT22;4559;47.252;9.592;2022-09-24T03:43:30;13.20;99.90
9049;DHT22;4559;47.252;9.592;2022-09-24T03:45:57;13.20;99.90
9049;DHT22;4559;47.252;9.592;2022-09-24T03:48:23;13.30;99.90
9049;DHT22;4559;47.252;9.592;2022-09-24T03:50:49;13.30;99.90
9049;DHT22;4559;47.252;9.592;2022-09-24T03:53:15;13.30;99.90
9049;DHT22;4559;47.252;9.592;2022-09-24T03:55:46;13.30;99.90
9049;DHT22;4559;47.252;9.592;2022-09-24T03:58:13;13.30;99.90
9049;DHT22;4559;47.252;9.592;2022-09-24T04:00:39;13.30;99.90
9049;DHT22;4559;47.252;9.592;2022-09-24T04:03:05;13.20;99.90
9049;DHT22;4559;47.252;9.592;2022-09-24T04:05:31;13.30;99.90
9049;DHT22;4559;47.252;9.592;2022-09-24T04:07:58;13.30;99.90
9049;DHT22;4559;47.252;9.592;2022-09-24T04:10:24;13.30;99.90
9049;DHT22;4559;47.252;9.592;2022-09-24T04:12:50;13.20;99.90
9049;DHT22;4559;47.252;9.592;2022-09-24T04:15:16;13.30;99.90
9049;DHT22;4559;47.252;9.592;2022-09-24T04:17:55;13.30;99.90
9049;DHT22;4559;47.252;9.592;2022-09-24T04:20:22;13.30;99.90
9049;DHT22;4559;47.252;9.592;2022-09-24T04:22:49;13.30;99.90
9049;DHT22;4559;47.252;9.592;2022-09-24T04:25:15;13.30;99.90
9049;DHT22;4559;47.252;9.592;2022-09-24T04:27:45;13.30;99.90
9049;DHT22;4559;47.252;9.592;2022-09-24T04:30:12;13.20;99.90
9049;DHT22;4559;47.252;9.592;2022-09-24T04:32:38;13.20;99.90
9049;DHT22;4559;47.252;9.592;2022-09-24T04:35:05;13.20;99.90
9049;DHT22;4559;47.252;9.592;2022-09-24T04:37:30;13.20;99.90
9049;DHT22;4559;47.252;9.592;2022-09-24T04:39:56;13.20;99.90
9049;DHT22;4559;47.252;9.592;2022-09-24T04:42:22;13.20;99.90
9049;DHT22;4559;47.252;9.592;2022-09-24T04:44:47;13.20;99.90
9049;DHT22;4559;47.252;9.592;2022-09-24T04:47:14;13.20;99.90
9049;DHT22;4559;47.252;9.592;2022-09-24T04:49:40;13.20;99.90
9049;DHT22;4559;47.252;9.592;2022-09-24T04:52:13;13.20;99.90
9049;DHT22;4559;47.252;9.592;2022-09-24T04:54:43;13.20;99.90
9049;DHT22;4559;47.252;9.592;2022-09-24T04:57:14;13.10;99.90
9049;DHT22;4559;47.252;9.592;2022-09-24T04:59:41;13.10;99.90
9049;DHT22;4559;47.252;9.592;2022-09-24T05:02:06;13.10;99.90
9049;DHT22;4559;47.252;9.592;2022-09-24T05:04:36;13.10;99.90
9049;DHT22;4559;47.252;9.592;2022-09-24T05:07:02;13.10;99.90
9049;DHT22;4559;47.252;9.592;2022-09-24T05:09:27;13.10;99.90
9049;DHT22;4559;47.252;9.592;2022-09-24T05:11:54;13.10;99.90
9049;DHT22;4559;47.252;9.592;2022-09-24T05:14:20;13.00;99.90
9049;DHT22;4559;47.252;9.592;2022-09-24T05:16:45;13.10;99.90
9049;DHT22;4559;47.252;9.592;2022-09-24T05:19:11;13.10;99.90
9049;DHT22;4559;47.252;9.592;2022-09-24T05:21:36;13.00;99.90
9049;DHT22;4559;47.252;9.592;2022-09-24T05:24:02;13.00;99.90
9049;DHT22;4559;47.252;9.592;2022-09-24T05:26:28;13.00;99.90
9049;DHT22;4559;47.252;9.592;2022-09-24T05:29:12;13.10;99.90
9049;DHT22;4559;47.252;9.592;2022-09-24T05:31:37;13.10;99.90
9049;DHT22;4559;47.252;9.592;2022-09-24T05:34:03;13.10;99.90
9049;DHT22;4559;47.252;9.592;2022-09-24T05:36:29;13.10;99.90
9049;DHT22;4559;47.252;9.592;2022-09-24T05:38:55;13.10;99.90
9049;DHT22;4559;47.252;9.592;2022-09-24T05:41:21;13.10;99.90
9049;DHT22;4559;47.252;9.592;2022-09-24T05:43:47;13.10;99.90
9049;DHT22;4559;47.252;9.592;2022-09-24T05:46:13;13.10;99.90
9049;DHT22;4559;47.252;9.592;2022-09-24T05:48:39;13.10;99.90
9049;DHT22;4559;47.252;9.592;2022-09-24T05:51:05;13.10;99.90
9049;DHT22;4559;47.252;9.592;2022-09-24T05:53:31;13.10;99.90
9049;DHT22;4559;47.252;9.592;2022-09-24T05:55:58;13.10;99.90
9049;DHT22;4559;47.252;9.592;2022-09-24T05:58:24;13.10;99.90
9049;DHT22;4559;47.252;9.592;2022-09-24T06:00:50;13.10;99.90
9049;DHT22;4559;47.252;9.592;2022-09-24T06:03:17;13.10;99.90
9049;DHT22;4559;47.252;9.592;2022-09-24T06:05:44;13.10;99.90
9049;DHT22;4559;47.252;9.592;2022-09-24T06:08:10;13.10;99.90
9049;DHT22;4559;47.252;9.592;2022-09-24T06:10:36;13.20;99.90
9049;DHT22;4559;47.252;9.592;2022-09-24T06:13:02;13.20;99.90
9049;DHT22;4559;47.252;9.592;2022-09-24T06:15:28;13.20;99.90
9049;DHT22;4559;47.252;9.592;2022-09-24T06:17:55;13.20;99.90
9049;DHT22;4559;47.252;9.592;2022-09-24T06:20:21;13.20;99.90
9049;DHT22;4559;47.252;9.592;2022-09-24T06:22:47;13.30;99.90
9049;DHT22;4559;47.252;9.592;2022-09-24T06:25:13;13.20;99.90
9049;DHT22;4559;47.252;9.592;2022-09-24T06:27:38;13.30;99.90
9049;DHT22;4559;47.252;9.592;2022-09-24T06:30:05;13.30;99.90
9049;DHT22;4559;47.252;9.592;2022-09-24T06:32:30;13.30;99.90
9049;DHT22;4559;47.252;9.592;2022-09-24T06:34:56;13.30;99.90
9049;DHT22;4559;47.252;9.592;2022-09-24T06:37:22;13.40;99.90
9049;DHT22;4559;47.252;9.592;2022-09-24T06:39:47;13.40;99.90
9049;DHT22;4559;47.252;9.592;2022-09-24T06:42:13;13.40;99.90
9049;DHT22;4559;47.252;9.592;2022-09-24T06:44:38;13.40;99.90
9049;DHT22;4559;47.252;9.592;2022-09-24T06:47:04;13.50;99.90
9049;DHT22;4559;47.252;9.592;2022-09-24T06:49:29;13.50;99.90
9049;DHT22;4559;47.252;9.592;2022-09-24T06:51:56;13.50;99.90
9049;DHT22;4559;47.252;9.592;2022-09-24T06:54:23;13.50;99.90
9049;DHT22;4559;47.252;9.592;2022-09-24T06:56:48;13.50;99.90
9049;DHT22;4559;47.252;9.592;2022-09-24T06:59:15;13.50;99.90
9049;DHT22;4559;47.252;9.592;2022-09-24T07:01:41;13.60;99.90
9049;DHT22;4559;47.252;9.592;2022-09-24T07:04:07;13.50;99.90
9049;DHT22;4559;47.252;9.592;2022-09-24T07:06:35;13.50;99.90
9049;DHT22;4559;47.252;9.592;2022-09-24T07:09:20;13.60;99.90
9049;DHT22;4559;47.252;9.592;2022-09-24T07:11:46;13.60;99.90
9049;DHT22;4559;47.252;9.592;2022-09-24T07:14:14;13.70;99.90
9049;DHT22;4559;47.252;9.592;2022-09-24T07:16:40;13.70;99.90
9049;DHT22;4559;47.252;9.592;2022-09-24T07:19:05;13.80;99.90
9049;DHT22;4559;47.252;9.592;2022-09-24T07:21:31;13.80;99.90
9049;DHT22;4559;47.252;9.592;2022-09-24T07:23:56;13.80;99.90
9049;DHT22;4559;47.252;9.592;2022-09-24T07:26:22;13.90;99.90
9049;DHT22;4559;47.252;9.592;2022-09-24T07:28:48;13.90;99.90
9049;DHT22;4559;47.252;9.592;2022-09-24T07:31:14;13.90;99.90
9049;DHT22;4559;47.252;9.592;2022-09-24T07:33:41;14.00;99.90
9049;DHT22;4559;47.252;9.592;2022-09-24T07:36:07;14.10;99.90
9049;DHT22;4559;47.252;9.592;2022-09-24T07:38:33;14.10;99.90
9049;DHT22;4559;47.252;9.592;2022-09-24T07:41:01;14.20;99.90
9049;DHT22;4559;47.252;9.592;2022-09-24T07:43:30;14.30;99.90
9049;DHT22;4559;47.252;9.592;2022-09-24T07:45:57;14.40;99.90
9049;DHT22;4559;47.252;9.592;2022-09-24T07:48:23;14.40;99.90
9049;DHT22;4559;47.252;9.592;2022-09-24T07:50:49;14.40;99.90
9049;DHT22;4559;47.252;9.592;2022-09-24T07:53:15;14.50;99.90
9049;DHT22;4559;47.252;9.592;2022-09-24T07:55:41;14.60;99.90
9049;DHT22;4559;47.252;9.592;2022-09-24T07:58:10;14.60;99.90
9049;DHT22;4559;47.252;9.592;2022-09-24T08:00:36;14.60;99.90
9049;DHT22;4559;47.252;9.592;2022-09-24T08:03:02;14.60;99.90
9049;DHT22;4559;47.252;9.592;2022-09-24T08:05:28;14.60;99.90
9049;DHT22;4559;47.252;9.592;2022-09-24T08:07:55;14.70;99.90
9049;DHT22;4559;47.252;9.592;2022-09-24T08:10:22;14.80;99.90
9049;DHT22;4559;47.252;9.592;2022-09-24T08:12:48;14.90;99.90
9049;DHT22;4559;47.252;9.592;2022-09-24T08:15:13;14.90;99.90
9049;DHT22;4559;47.252;9.592;2022-09-24T08:17:40;14.90;99.90
9049;DHT22;4559;47.252;9.592;2022-09-24T08:20:06;15.00;99.90
9049;DHT22;4559;47.252;9.592;2022-09-24T08:22:32;15.00;99.90
9049;DHT22;4559;47.252;9.592;2022-09-24T08:24:57;15.10;99.90
9049;DHT22;4559;47.252;9.592;2022-09-24T08:27:23;15.20;99.90
9049;DHT22;4559;47.252;9.592;2022-09-24T08:29:50;15.20;99.90
9049;DHT22;4559;47.252;9.592;2022-09-24T08:32:16;15.30;99.90
9049;DHT22;4559;47.252;9.592;2022-09-24T08:34:42;15.30;99.90
9049;DHT22;4559;47.252;9.592;2022-09-24T08:37:08;15.30;99.90
9049;DHT22;4559;47.252;9.592;2022-09-24T08:39:34;15.30;99.90
9049;DHT22;4559;47.252;9.592;2022-09-24T08:42:03;15.40;99.90
9049;DHT22;4559;47.252;9.592;2022-09-24T08:44:42;15.50;99.90
9049;DHT22;4559;47.252;9.592;2022-09-24T08:55:17;15.80;99.90
9049;DHT22;4559;47.252;9.592;2022-09-24T09:01:10;16.00;99.90
9049;DHT22;4559;47.252;9.592;2022-09-24T09:03:45;16.10;99.90
9049;DHT22;4559;47.252;9.592;2022-09-24T09:11:27;16.40;99.90
9049;DHT22;4559;47.252;9.592;2022-09-24T09:13:58;16.40;99.90
9049;DHT22;4559;47.252;9.592;2022-09-24T09:16:32;16.50;99.90
9049;DHT22;4559;47.252;9.592;2022-09-24T09:19:03;16.60;99.90
9049;DHT22;4559;47.252;9.592;2022-09-24T09:21:33;16.60;99.90
9049;DHT22;4559;47.252;9.592;2022-09-24T09:24:02;16.60;99.90
9049;DHT22;4559;47.252;9.592;2022-09-24T09:26:28;16.70;99.90
9049;DHT22;4559;47.252;9.592;2022-09-24T09:28:58;16.70;99.90
9049;DHT22;4559;47.252;9.592;2022-09-24T09:37:38;16.90;99.90
9049;DHT22;4559;47.252;9.592;2022-09-24T09:40:28;16.90;99.90
9049;DHT22;4559;47.252;9.592;2022-09-24T09:43:00;16.90;99.90
9049;DHT22;4559;47.252;9.592;2022-09-24T09:45:32;16.90;99.90
9049;DHT22;4559;47.252;9.592;2022-09-24T09:47:59;17.00;99.90
9049;DHT22;4559;47.252;9.592;2022-09-24T09:50:35;17.00;99.90
9049;DHT22;4559;47.252;9.592;2022-09-24T09:53:03;17.00;99.90
9049;DHT22;4559;47.252;9.592;2022-09-24T09:55:34;17.00;99.90
9049;DHT22;4559;47.252;9.592;2022-09-24T09:58:18;17.10;99.90
9049;DHT22;4559;47.252;9.592;2022-09-24T10:00:44;17.20;99.90
9049;DHT22;4559;47.252;9.592;2022-09-24T10:03:31;17.30;99.90
9049;DHT22;4559;47.252;9.592;2022-09-24T10:06:03;17.60;99.90
9049;DHT22;4559;47.252;9.592;2022-09-24T10:08:30;17.90;99.90
9049;DHT22;4559;47.252;9.592;2022-09-24T10:10:57;18.20;99.90
9049;DHT22;4559;47.252;9.592;2022-09-24T10:13:24;18.50;99.70
9049;DHT22;4559;47.252;9.592;2022-09-24T10:15:55;18.80;99.90
9049;DHT22;4559;47.252;9.592;2022-09-24T10:18:29;19.00;99.60
9049;DHT22;4559;47.252;9.592;2022-09-24T10:20:57;19.10;99.00
9049;DHT22;4559;47.252;9.592;2022-09-24T10:23:40;19.20;98.90
9049;DHT22;4559;47.252;9.592;2022-09-24T10:26:07;19.30;98.90
9049;DHT22;4559;47.252;9.592;2022-09-24T10:28:39;19.40;99.80
9049;DHT22;4559;47.252;9.592;2022-09-24T10:31:27;19.40;99.90
9049;DHT22;4559;47.252;9.592;2022-09-24T10:33:56;19.50;99.60
9049;DHT22;4559;47.252;9.592;2022-09-24T10:36:30;19.40;99.90
9049;DHT22;4559;47.252;9.592;2022-09-24T10:39:13;19.50;99.90
9049;DHT22;4559;47.252;9.592;2022-09-24T10:41:51;19.40;99.90
9049;DHT22;4559;47.252;9.592;2022-09-24T10:44:19;19.40;99.90
9049;DHT22;4559;47.252;9.592;2022-09-24T10:55:30;19.30;99.90
9049;DHT22;4559;47.252;9.592;2022-09-24T11:03:47;19.20;99.90
9049;DHT22;4559;47.252;9.592;2022-09-24T11:14:27;18.90;99.90
9049;DHT22;4559;47.252;9.592;2022-09-24T11:17:24;19.00;99.90
9049;DHT22;4559;47.252;9.592;2022-09-24T11:20:24;18.90;99.90
9049;DHT22;4559;47.252;9.592;2022-09-24T11:25:50;19.00;99.90
9049;DHT22;4559;47.252;9.592;2022-09-24T11:28:29;19.00;99.90
9049;DHT22;4559;47.252;9.592;2022-09-24T11:36:47;19.00;99.90
9049;DHT22;4559;47.252;9.592;2022-09-24T11:44:45;19.00;99.90
9049;DHT22;4559;47.252;9.592;2022-09-24T11:53:48;18.90;99.90
9049;DHT22;4559;47.252;9.592;2022-09-24T11:56:06;18.90;99.90
9049;DHT22;4559;47.252;9.592;2022-09-24T11:58:39;18.90;99.90
9049;DHT22;4559;47.252;9.592;2022-09-24T12:01:29;19.00;99.90
9049;DHT22;4559;47.252;9.592;2022-09-24T12:04:08;18.90;99.90
9049;DHT22;4559;47.252;9.592;2022-09-24T12:06:54;18.90;99.90
9049;DHT22;4559;47.252;9.592;2022-09-24T12:09:37;19.00;99.90
9049;DHT22;4559;47.252;9.592;2022-09-24T12:12:11;19.00;99.90
9049;DHT22;4559;47.252;9.592;2022-09-24T12:17:22;19.10;99.90
9049;DHT22;4559;47.252;9.592;2022-09-24T12:19:55;19.10;99.90
9049;DHT22;4559;47.252;9.592;2022-09-24T12:22:24;19.40;99.90
9049;DHT22;4559;47.252;9.592;2022-09-24T12:24:53;19.50;99.90
9049;DHT22;4559;47.252;9.592;2022-09-24T12:27:28;19.50;99.90
9049;DHT22;4559;47.252;9.592;2022-09-24T12:33:02;19.60;99.90
9049;DHT22;4559;47.252;9.592;2022-09-24T12:38:22;19.80;99.90
9049;DHT22;4559;47.252;9.592;2022-09-24T12:46:41;19.60;99.90
9049;DHT22;4559;47.252;9.592;2022-09-24T12:51:52;19.40;99.90
9049;DHT22;4559;47.252;9.592;2022-09-24T12:54:31;19.20;99.90
9049;DHT22;4559;47.252;9.592;2022-09-24T12:57:12;19.10;99.90
9049;DHT22;4559;47.252;9.592;2022-09-24T12:59:56;19.10;99.90
9049;DHT22;4559;47.252;9.592;2022-09-24T13:02:29;19.00;99.90
9049;DHT22;4559;47.252;9.592;2022-09-24T13:07:28;18.80;99.90
9049;DHT22;4559;47.252;9.592;2022-09-24T13:09:54;18.80;99.90
9049;DHT22;4559;47.252;9.592;2022-09-24T13:12:28;18.70;99.90
9049;DHT22;4559;47.252;9.592;2022-09-24T13:15:04;18.80;99.90
9049;DHT22;4559;47.252;9.592;2022-09-24T13:17:33;18.70;99.90
9049;DHT22;4559;47.252;9.592;2022-09-24T13:20:04;18.70;99.90
9049;DHT22;4559;47.252;9.592;2022-09-24T13:22:35;18.70;99.90
9049;DHT22;4559;47.252;9.592;2022-09-24T13:25:22;18.70;99.90
9049;DHT22;4559;47.252;9.592;2022-09-24T13:28:02;18.70;99.90
9049;DHT22;4559;47.252;9.592;2022-09-24T13:33:03;18.60;99.90
9049;DHT22;4559;47.252;9.592;2022-09-24T13:38:41;18.60;99.90
9049;DHT22;4559;47.252;9.592;2022-09-24T13:41:23;18.60;99.90
9049;DHT22;4559;47.252;9.592;2022-09-24T13:44:04;18.60;99.90
9049;DHT22;4559;47.252;9.592;2022-09-24T13:46:34;18.60;99.90
9049;DHT22;4559;47.252;9.592;2022-09-24T13:49:07;18.60;99.90
9049;DHT22;4559;47.252;9.592;2022-09-24T13:51:36;18.50;99.90
9049;DHT22;4559;47.252;9.592;2022-09-24T13:54:30;18.40;99.90
9049;DHT22;4559;47.252;9.592;2022-09-24T13:59:33;18.30;99.90
9049;DHT22;4559;47.252;9.592;2022-09-24T14:01:59;18.20;99.90
9049;DHT22;4559;47.252;9.592;2022-09-24T14:04:25;18.20;99.90
9049;DHT22;4559;47.252;9.592;2022-09-24T14:06:55;18.10;99.90
9049;DHT22;4559;47.252;9.592;2022-09-24T14:09:32;18.10;99.90
9049;DHT22;4559;47.252;9.592;2022-09-24T14:12:13;18.10;99.90
9049;DHT22;4559;47.252;9.592;2022-09-24T14:14:53;18.00;99.90
9049;DHT22;4559;47.252;9.592;2022-09-24T14:17:22;17.90;99.90
9049;DHT22;4559;47.252;9.592;2022-09-24T14:19:55;17.80;99.90
9049;DHT22;4559;47.252;9.592;2022-09-24T14:22:25;17.80;99.90
9049;DHT22;4559;47.252;9.592;2022-09-24T14:25:02;17.80;99.90
9049;DHT22;4559;47.252;9.592;2022-09-24T14:27:32;17.70;99.90
9049;DHT22;4559;47.252;9.592;2022-09-24T14:30:05;17.70;99.90
9049;DHT22;4559;47.252;9.592;2022-09-24T14:32:34;17.60;99.90
9049;DHT22;4559;47.252;9.592;2022-09-24T14:35:19;17.60;99.90
9049;DHT22;4559;47.252;9.592;2022-09-24T14:37:51;17.50;99.90
9049;DHT22;4559;47.252;9.592;2022-09-24T14:40:20;17.60;99.90
9049;DHT22;4559;47.252;9.592;2022-09-24T14:42:47;17.60;99.90
9049;DHT22;4559;47.252;9.592;2022-09-24T14:45:19;17.60;99.90
9049;DHT22;4559;47.252;9.592;2022-09-24T14:47:45;17.60;99.90
9049;DHT22;4559;47.252;9.592;2022-09-24T14:50:32;17.60;99.90
9049;DHT22;4559;47.252;9.592;2022-09-24T14:53:01;17.70;99.90
9049;DHT22;4559;47.252;9.592;2022-09-24T14:55:40;17.60;99.90
9049;DHT22;4559;47.252;9.592;2022-09-24T14:58:32;17.60;99.90
9049;DHT22;4559;47.252;9.592;2022-09-24T15:01:03;17.70;99.90
9049;DHT22;4559;47.252;9.592;2022-09-24T15:03:49;17.70;99.90
9049;DHT22;4559;47.252;9.592;2022-09-24T15:06:25;17.60;99.90
9049;DHT22;4559;47.252;9.592;2022-09-24T15:09:03;17.60;99.90
9049;DHT22;4559;47.252;9.592;2022-09-24T15:11:34;17.60;99.90
9049;DHT22;4559;47.252;9.592;2022-09-24T15:14:19;17.50;99.90
9049;DHT22;4559;47.252;9.592;2022-09-24T15:16:52;17.60;99.90
9049;DHT22;4559;47.252;9.592;2022-09-24T15:19:23;17.60;99.90
9049;DHT22;4559;47.252;9.592;2022-09-24T15:21:53;17.60;99.90
9049;DHT22;4559;47.252;9.592;2022-09-24T15:24:19;17.60;99.90
9049;DHT22;4559;47.252;9.592;2022-09-24T15:29:25;17.60;99.90
9049;DHT22;4559;47.252;9.592;2022-09-24T15:31:52;17.60;99.90
9049;DHT22;4559;47.252;9.592;2022-09-24T15:34:19;17.60;99.90
9049;DHT22;4559;47.252;9.592;2022-09-24T15:36:46;17.60;99.90
9049;DHT22;4559;47.252;9.592;2022-09-24T15:39:12;17.50;99.90
9049;DHT22;4559;47.252;9.592;2022-09-24T15:41:38;17.50;99.90
9049;DHT22;4559;47.252;9.592;2022-09-24T15:44:04;17.50;99.90
9049;DHT22;4559;47.252;9.592;2022-09-24T15:46:30;17.40;99.90
9049;DHT22;4559;47.252;9.592;2022-09-24T15:48:56;17.40;99.90
9049;DHT22;4559;47.252;9.592;2022-09-24T15:51:21;17.30;99.90
9049;DHT22;4559;47.252;9.592;2022-09-24T15:53:48;17.30;99.90
9049;DHT22;4559;47.252;9.592;2022-09-24T15:56:15;17.20;99.90
9049;DHT22;4559;47.252;9.592;2022-09-24T15:58:41;17.20;99.90
9049;DHT22;4559;47.252;9.592;2022-09-24T16:01:14;17.20;99.90
9049;DHT22;4559;47.252;9.592;2022-09-24T16:03:41;17.10;99.90
9049;DHT22;4559;47.252;9.592;2022-09-24T16:06:09;17.10;99.90
9049;DHT22;4559;47.252;9.592;2022-09-24T16:08:35;17.10;99.90
9049;DHT22;4559;47.252;9.592;2022-09-24T16:11:01;17.10;99.90
9049;DHT22;4559;47.252;9.592;2022-09-24T16:13:27;17.10;99.90
9049;DHT22;4559;47.252;9.592;2022-09-24T16:15:52;17.10;99.90
9049;DHT22;4559;47.252;9.592;2022-09-24T16:18:18;17.10;99.90
9049;DHT22;4559;47.252;9.592;2022-09-24T16:20:45;17.10;99.90
9049;DHT22;4559;47.252;9.592;2022-09-24T16:23:16;17.10;99.90
9049;DHT22;4559;47.252;9.592;2022-09-24T16:25:56;17.10;99.90
9049;DHT22;4559;47.252;9.592;2022-09-24T16:28:22;17.10;99.90
9049;DHT22;4559;47.252;9.592;2022-09-24T16:30:48;17.10;99.90
9049;DHT22;4559;47.252;9.592;2022-09-24T16:33:13;17.00;99.90
9049;DHT22;4559;47.252;9.592;2022-09-24T16:35:39;17.00;99.90
9049;DHT22;4559;47.252;9.592;2022-09-24T16:38:04;17.00;99.90
9049;DHT22;4559;47.252;9.592;2022-09-24T16:40:30;17.00;99.90
9049;DHT22;4559;47.252;9.592;2022-09-24T16:42:57;16.90;99.90
9049;DHT22;4559;47.252;9.592;2022-09-24T16:45:22;16.90;99.90
9049;DHT22;4559;47.252;9.592;2022-09-24T16:47:48;16.90;99.90
9049;DHT22;4559;47.252;9.592;2022-09-24T16:50:14;16.90;99.90
9049;DHT22;4559;47.252;9.592;2022-09-24T16:52:40;16.90;99.90
9049;DHT22;4559;47.252;9.592;2022-09-24T16:55:07;16.80;99.90
9049;DHT22;4559;47.252;9.592;2022-09-24T16:57:38;16.70;99.90
9049;DHT22;4559;47.252;9.592;2022-09-24T17:00:05;16.70;99.90
9049;DHT22;4559;47.252;9.592;2022-09-24T17:02:33;16.70;99.90
9049;DHT22;4559;47.252;9.592;2022-09-24T17:04:59;16.60;99.90
9049;DHT22;4559;47.252;9.592;2022-09-24T17:07:24;16.60;99.90
9049;DHT22;4559;47.252;9.592;2022-09-24T17:09:50;16.60;99.90
9049;DHT22;4559;47.252;9.592;2022-09-24T17:12:34;16.50;99.90
9049;DHT22;4559;47.252;9.592;2022-09-24T17:14:59;16.40;99.90
9049;DHT22;4559;47.252;9.592;2022-09-24T17:17:26;16.40;99.90
9049;DHT22;4559;47.252;9.592;2022-09-24T17:19:52;16.40;99.90
9049;DHT22;4559;47.252;9.592;2022-09-24T17:22:18;16.40;99.90
9049;DHT22;4559;47.252;9.592;2022-09-24T17:24:44;16.40;99.90
9049;DHT22;4559;47.252;9.592;2022-09-24T17:27:09;16.30;99.90
9049;DHT22;4559;47.252;9.592;2022-09-24T17:29:35;16.30;99.90
9049;DHT22;4559;47.252;9.592;2022-09-24T17:32:01;16.20;99.90
9049;DHT22;4559;47.252;9.592;2022-09-24T17:34:26;16.10;99.90
9049;DHT22;4559;47.252;9.592;2022-09-24T17:36:52;16.10;99.90
9049;DHT22;4559;47.252;9.592;2022-09-24T17:39:18;16.10;99.90
9049;DHT22;4559;47.252;9.592;2022-09-24T17:41:43;16.10;99.90
9049;DHT22;4559;47.252;9.592;2022-09-24T17:44:10;16.00;99.90
9049;DHT22;4559;47.252;9.592;2022-09-24T17:46:37;16.00;99.90
9049;DHT22;4559;47.252;9.592;2022-09-24T17:49:03;16.00;99.90
9049;DHT22;4559;47.252;9.592;2022-09-24T17:51:31;16.00;99.90
9049;DHT22;4559;47.252;9.592;2022-09-24T17:53:58;16.00;99.90
9049;DHT22;4559;47.252;9.592;2022-09-24T17:56:26;16.00;99.90
9049;DHT22;4559;47.252;9.592;2022-09-24T17:58:55;16.00;99.90
9049;DHT22;4559;47.252;9.592;2022-09-24T18:01:32;15.90;99.90
9049;DHT22;4559;47.252;9.592;2022-09-24T18:04:00;15.80;99.90
9049;DHT22;4559;47.252;9.592;2022-09-24T18:06:27;15.80;99.90
9049;DHT22;4559;47.252;9.592;2022-09-24T18:08:54;15.80;99.90
9049;DHT22;4559;47.252;9.592;2022-09-24T18:11:32;15.80;99.90
9049;DHT22;4559;47.252;9.592;2022-09-24T18:13:59;15.70;99.90